sensor_id;sensor_type;location;lat;lon;timestamp;pressure;altitude;pressure_sealevel;temperature;humidity
36010;BME280;22076;52.182;5.404;2023-09-08T00:01:49;101954.50;;;29.01;100.00
36010;BME280;22076;52.182;5.404;2023-09-08T00:04:16;101948.97;;;28.95;100.00
36010;BME280;22076;52.182;5.404;2023-09-08T00:06:44;101955.84;;;28.97;100.00
36010;BME280;22076;52.182;5.404;2023-09-08T00:09:11;101953.91;;;28.91;100.00
36010;BME280;22076;52.182;5.404;2023-09-08T00:11:47;101953.91;;;28.91;100.00
36010;BME280;22076;52.182;5.404;2023-09-08T00:14:15;101947.75;;;28.82;100.00
36010;BME280;22076;52.182;5.404;2023-09-08T00:16:41;101948.47;;;28.76;100.00
36010;BME280;22076;52.182;5.404;2023-09-08T00:21:36;101949.97;;;28.79;100.00
36010;BME280;22076;52.182;5.404;2023-09-08T00:24:03;101951.81;;;28.78;100.00
36010;BME280;22076;52.182;5.404;2023-09-08T00:26:36;101953.13;;;28.82;100.00
36010;BME280;22076;52.182;5.404;2023-09-08T00:29:03;101952.53;;;28.72;100.00
36010;BME280;22076;52.182;5.404;2023-09-08T00:31:31;101948.47;;;28.76;100.00
36010;BME280;22076;52.182;5.404;2023-09-08T00:33:58;101958.13;;;28.62;100.00
36010;BME280;22076;52.182;5.404;2023-09-08T00:36:24;101949.94;;;28.56;100.00
36010;BME280;22076;52.182;5.404;2023-09-08T00:38:51;101950.94;;;28.55;100.00
36010;BME280;22076;52.182;5.404;2023-09-08T00:41:18;101950.50;;;28.51;100.00
36010;BME280;22076;52.182;5.404;2023-09-08T00:43:44;101948.69;;;28.43;100.00
36010;BME280;22076;52.182;5.404;2023-09-08T00:46:11;101952.03;;;28.45;100.00
36010;BME280;22076;52.182;5.404;2023-09-08T00:48:41;101947.97;;;28.49;100.00
36010;BME280;22076;52.182;5.404;2023-09-08T00:51:08;101951.38;;;28.43;100.00
36010;BME280;22076;52.182;5.404;2023-09-08T00:53:35;101952.09;;;28.37;100.00
36010;BME280;22076;52.182;5.404;2023-09-08T00:56:04;101951.84;;;28.47;100.00
36010;BME280;22076;52.182;5.404;2023-09-08T00:58:31;101951.91;;;28.39;100.00
36010;BME280;22076;52.182;5.404;2023-09-08T01:00:58;101947.22;;;28.32;100.00
36010;BME280;22076;52.182;5.404;2023-09-08T01:03:25;101936.66;;;28.31;100.00
36010;BME280;22076;52.182;5.404;2023-09-08T01:05:54;101936.97;;;28.36;100.00
36010;BME280;22076;52.182;5.404;2023-09-08T01:08:21;101940.25;;;28.23;100.00
36010;BME280;22076;52.182;5.404;2023-09-08T01:10:49;101933.03;;;28.24;100.00
36010;BME280;22076;52.182;5.404;2023-09-08T01:13:16;101940.28;;;28.15;100.00
36010;BME280;22076;52.182;5.404;2023-09-08T01:15:42;101937.13;;;28.11;100.00
36010;BME280;22076;52.182;5.404;2023-09-08T01:18:09;101939.16;;;28.09;100.00
36010;BME280;22076;52.182;5.404;2023-09-08T01:20:48;101947.34;;;28.16;100.00
36010;BME280;22076;52.182;5.404;2023-09-08T01:23:29;101941.31;;;28.14;100.00
36010;BME280;22076;52.182;5.404;2023-09-08T01:26:07;101939.47;;;28.14;100.00
36010;BME280;22076;52.182;5.404;2023-09-08T01:28:35;101943.19;;;28.05;100.00
36010;BME280;22076;52.182;5.404;2023-09-08T01:31:03;101942.84;;;28.00;100.00
36010;BME280;22076;52.182;5.404;2023-09-08T01:33:30;101942.53;;;27.95;100.00
36010;BME280;22076;52.182;5.404;2023-09-08T01:35:57;101940.22;;;27.92;100.00
36010;BME280;22076;52.182;5.404;2023-09-08T01:38:25;101939.50;;;27.98;100.00
36010;BME280;22076;52.182;5.404;2023-09-08T01:40:51;101933.69;;;27.86;100.00
36010;BME280;22076;52.182;5.404;2023-09-08T01:43:19;101932.34;;;27.90;100.00
36010;BME280;22076;52.182;5.404;2023-09-08T01:45:46;101938.94;;;27.79;100.00
36010;BME280;22076;52.182;5.404;2023-09-08T01:48:13;101939.25;;;27.76;100.00
36010;BME280;22076;52.182;5.404;2023-09-08T01:50:39;101944.63;;;27.76;100.00
36010;BME280;22076;52.182;5.404;2023-09-08T01:53:06;101940.75;;;27.79;100.00
36010;BME280;22076;52.182;5.404;2023-09-08T01:55:32;101933.88;;;27.84;100.00
36010;BME280;22076;52.182;5.404;2023-09-08T01:57:59;101935.75;;;27.76;100.00
36010;BME280;22076;52.182;5.404;2023-09-08T02:00:27;101934.03;;;27.83;100.00
36010;BME280;22076;52.182;5.404;2023-09-08T02:02:54;101939.13;;;27.69;100.00
36010;BME280;22076;52.182;5.404;2023-09-08T02:05:20;101940.13;;;27.68;100.00
36010;BME280;22076;52.182;5.404;2023-09-08T02:07:47;101943.50;;;27.62;100.00
36010;BME280;22076;52.182;5.404;2023-09-08T02:10:14;101938.44;;;27.67;100.00
36010;BME280;22076;52.182;5.404;2023-09-08T02:12:41;101942.50;;;27.63;100.00
36010;BME280;22076;52.182;5.404;2023-09-08T02:15:08;101935.94;;;27.66;100.00
36010;BME280;22076;52.182;5.404;2023-09-08T02:17:37;101938.31;;;27.69;100.00
36010;BME280;22076;52.182;5.404;2023-09-08T02:20:05;101941.50;;;27.64;100.00
36010;BME280;22076;52.182;5.404;2023-09-08T02:22:32;101936.34;;;27.55;100.00
36010;BME280;22076;52.182;5.404;2023-09-08T02:24:59;101933.34;;;27.49;100.00
36010;BME280;22076;52.182;5.404;2023-09-08T02:27:26;101928.47;;;27.45;100.00
36010;BME280;22076;52.182;5.404;2023-09-08T02:29:53;101933.44;;;27.64;100.00
36010;BME280;22076;52.182;5.404;2023-09-08T02:32:19;101935.44;;;27.62;100.00
36010;BME280;22076;52.182;5.404;2023-09-08T02:34:47;101932.56;;;27.72;100.00
36010;BME280;22076;52.182;5.404;2023-09-08T02:37:15;101925.59;;;27.55;100.00
36010;BME280;22076;52.182;5.404;2023-09-08T02:39:43;101929.94;;;27.56;100.00
36010;BME280;22076;52.182;5.404;2023-09-08T02:42:10;101924.94;;;27.52;100.00
36010;BME280;22076;52.182;5.404;2023-09-08T02:44:36;101924.09;;;27.52;100.00
36010;BME280;22076;52.182;5.404;2023-09-08T02:47:03;101929.28;;;27.53;100.00
36010;BME280;22076;52.182;5.404;2023-09-08T02:49:37;101926.56;;;27.62;100.00
36010;BME280;22076;52.182;5.404;2023-09-08T02:52:05;101934.66;;;27.53;100.00
36010;BME280;22076;52.182;5.404;2023-09-08T02:54:32;101932.34;;;27.42;100.00
36010;BME280;22076;52.182;5.404;2023-09-08T02:56:58;101932.50;;;27.41;100.00
36010;BME280;22076;52.182;5.404;2023-09-08T02:59:25;101931.97;;;27.37;100.00
36010;BME280;22076;52.182;5.404;2023-09-08T03:01:52;101932.81;;;27.37;100.00
36010;BME280;22076;52.182;5.404;2023-09-08T03:04:18;101936.84;;;27.33;100.00
36010;BME280;22076;52.182;5.404;2023-09-08T03:06:45;101938.88;;;27.31;100.00
36010;BME280;22076;52.182;5.404;2023-09-08T03:09:13;101932.97;;;27.36;100.00
36010;BME280;22076;52.182;5.404;2023-09-08T03:11:39;101932.31;;;27.26;100.00
36010;BME280;22076;52.182;5.404;2023-09-08T03:14:06;101935.38;;;27.06;100.00
36010;BME280;22076;52.182;5.404;2023-09-08T03:16:33;101937.72;;;27.01;100.00
36010;BME280;22076;52.182;5.404;2023-09-08T03:18:59;101933.53;;;26.98;100.00
36010;BME280;22076;52.182;5.404;2023-09-08T03:21:26;101927.69;;;26.95;100.00
36010;BME280;22076;52.182;5.404;2023-09-08T03:23:53;101917.28;;;26.92;100.00
36010;BME280;22076;52.182;5.404;2023-09-08T03:26:21;101918.13;;;27.00;100.00
36010;BME280;22076;52.182;5.404;2023-09-08T03:28:47;101915.59;;;26.91;100.00
36010;BME280;22076;52.182;5.404;2023-09-08T03:31:14;101912.75;;;26.84;100.00
36010;BME280;22076;52.182;5.404;2023-09-08T03:33:40;101919.97;;;26.83;100.00
36010;BME280;22076;52.182;5.404;2023-09-08T03:36:08;101914.44;;;26.85;100.00
36010;BME280;22076;52.182;5.404;2023-09-08T03:38:34;101921.34;;;26.79;100.00
36010;BME280;22076;52.182;5.404;2023-09-08T03:41:02;101920.31;;;26.72;100.00
36010;BME280;22076;52.182;5.404;2023-09-08T03:43:30;101908.94;;;26.78;100.00
36010;BME280;22076;52.182;5.404;2023-09-08T03:45:57;101912.75;;;26.67;100.00
36010;BME280;22076;52.182;5.404;2023-09-08T03:48:23;101912.59;;;26.69;100.00
36010;BME280;22076;52.182;5.404;2023-09-08T03:50:50;101913.41;;;26.69;100.00
36010;BME280;22076;52.182;5.404;2023-09-08T03:53:16;101903.84;;;26.67;100.00
36010;BME280;22076;52.182;5.404;2023-09-08T03:55:43;101910.22;;;26.66;100.00
36010;BME280;22076;52.182;5.404;2023-09-08T03:58:10;101907.53;;;26.66;100.00
36010;BME280;22076;52.182;5.404;2023-09-08T04:00:38;101905.06;;;26.73;100.00
36010;BME280;22076;52.182;5.404;2023-09-08T04:03:04;101906.38;;;26.52;100.00
36010;BME280;22076;52.182;5.404;2023-09-08T04:05:31;101904.66;;;26.43;100.00
36010;BME280;22076;52.182;5.404;2023-09-08T04:07:58;101907.56;;;26.49;100.00
36010;BME280;22076;52.182;5.404;2023-09-08T04:10:24;101906.34;;;26.44;100.00
36010;BME280;22076;52.182;5.404;2023-09-08T04:12:51;101903.19;;;26.48;100.00
36010;BME280;22076;52.182;5.404;2023-09-08T04:15:18;101907.84;;;26.46;100.00
36010;BME280;22076;52.182;5.404;2023-09-08T04:17:46;101902.66;;;26.53;100.00
36010;BME280;22076;52.182;5.404;2023-09-08T04:20:13;101908.53;;;26.40;100.00
36010;BME280;22076;52.182;5.404;2023-09-08T04:22:40;101908.19;;;26.43;100.00
36010;BME280;22076;52.182;5.404;2023-09-08T04:25:07;101910.72;;;26.36;100.00
36010;BME280;22076;52.182;5.404;2023-09-08T04:27:35;101904.84;;;26.25;100.00
36010;BME280;22076;52.182;5.404;2023-09-08T04:30:02;101902.81;;;26.27;100.00
36010;BME280;22076;52.182;5.404;2023-09-08T04:32:29;101905.66;;;26.25;100.00
36010;BME280;22076;52.182;5.404;2023-09-08T04:34:57;101908.50;;;26.32;100.00
36010;BME280;22076;52.182;5.404;2023-09-08T04:37:24;101903.47;;;26.20;100.00
36010;BME280;22076;52.182;5.404;2023-09-08T04:39:50;101901.63;;;26.21;100.00
36010;BME280;22076;52.182;5.404;2023-09-08T04:42:18;101904.84;;;26.25;100.00
36010;BME280;22076;52.182;5.404;2023-09-08T04:44:45;101896.94;;;26.15;100.00
36010;BME280;22076;52.182;5.404;2023-09-08T04:47:11;101893.72;;;26.11;100.00
36010;BME280;22076;52.182;5.404;2023-09-08T04:49:38;101894.91;;;26.09;100.00
36010;BME280;22076;52.182;5.404;2023-09-08T04:52:06;101900.44;;;26.15;100.00
36010;BME280;22076;52.182;5.404;2023-09-08T04:54:33;101899.88;;;26.03;100.00
36010;BME280;22076;52.182;5.404;2023-09-08T04:57:00;101892.50;;;25.97;100.00
36010;BME280;22076;52.182;5.404;2023-09-08T04:59:28;101903.06;;;25.99;100.00
36010;BME280;22076;52.182;5.404;2023-09-08T05:01:54;101903.56;;;26.02;100.00
36010;BME280;22076;52.182;5.404;2023-09-08T05:04:21;101905.13;;;26.05;100.00
36010;BME280;22076;52.182;5.404;2023-09-08T05:06:48;101907.47;;;26.08;100.00
36010;BME280;22076;52.182;5.404;2023-09-08T05:09:16;101898.91;;;26.13;100.00
36010;BME280;22076;52.182;5.404;2023-09-08T05:11:43;101902.38;;;25.97;100.00
36010;BME280;22076;52.182;5.404;2023-09-08T05:14:09;101907.53;;;25.90;100.00
36010;BME280;22076;52.182;5.404;2023-09-08T05:16:36;101900.34;;;25.90;100.00
36010;BME280;22076;52.182;5.404;2023-09-08T05:19:08;101896.19;;;25.96;100.00
36010;BME280;22076;52.182;5.404;2023-09-08T05:21:34;101901.03;;;25.93;100.00
36010;BME280;22076;52.182;5.404;2023-09-08T05:24:02;101903.88;;;25.91;100.00
36010;BME280;22076;52.182;5.404;2023-09-08T05:26:30;101895.19;;;25.97;100.00
36010;BME280;22076;52.182;5.404;2023-09-08T05:28:57;101899.16;;;25.85;100.00
36010;BME280;22076;52.182;5.404;2023-09-08T05:31:23;101901.13;;;25.83;100.00
36010;BME280;22076;52.182;5.404;2023-09-08T05:33:51;101903.81;;;25.83;100.00
36010;BME280;22076;52.182;5.404;2023-09-08T05:36:18;101899.66;;;25.80;100.00
36010;BME280;22076;52.182;5.404;2023-09-08T05:38:46;101906.53;;;25.91;100.00
36010;BME280;22076;52.182;5.404;2023-09-08T05:41:12;101908.19;;;25.84;100.00
36010;BME280;22076;52.182;5.404;2023-09-08T05:43:40;101910.72;;;25.94;100.00
36010;BME280;22076;52.182;5.404;2023-09-08T05:46:07;101907.34;;;25.83;100.00
36010;BME280;22076;52.182;5.404;2023-09-08T05:48:33;101916.38;;;25.82;100.00
36010;BME280;22076;52.182;5.404;2023-09-08T05:51:00;101909.50;;;25.80;100.00
36010;BME280;22076;52.182;5.404;2023-09-08T05:53:27;101912.69;;;25.83;100.00
36010;BME280;22076;52.182;5.404;2023-09-08T05:55:54;101914.06;;;25.87;100.00
36010;BME280;22076;52.182;5.404;2023-09-08T05:58:31;101921.84;;;26.07;100.00
36010;BME280;22076;52.182;5.404;2023-09-08T06:00:59;101918.44;;;25.97;100.00
36010;BME280;22076;52.182;5.404;2023-09-08T06:03:26;101922.91;;;25.88;100.00
36010;BME280;22076;52.182;5.404;2023-09-08T06:05:52;101920.75;;;25.92;100.00
36010;BME280;22076;52.182;5.404;2023-09-08T06:08:25;101924.88;;;26.04;100.00
36010;BME280;22076;52.182;5.404;2023-09-08T06:10:51;101926.63;;;25.87;100.00
36010;BME280;22076;52.182;5.404;2023-09-08T06:13:18;101932.31;;;25.92;100.00
36010;BME280;22076;52.182;5.404;2023-09-08T06:15:45;101924.13;;;26.02;100.00
36010;BME280;22076;52.182;5.404;2023-09-08T06:18:13;101927.56;;;26.12;100.00
36010;BME280;22076;52.182;5.404;2023-09-08T06:20:45;101934.09;;;26.18;100.00
36010;BME280;22076;52.182;5.404;2023-09-08T06:23:12;101930.88;;;26.06;100.00
36010;BME280;22076;52.182;5.404;2023-09-08T06:25:39;101923.53;;;26.08;100.00
36010;BME280;22076;52.182;5.404;2023-09-08T06:28:06;101925.69;;;26.13;100.00
36010;BME280;22076;52.182;5.404;2023-09-08T06:30:33;101925.56;;;26.22;100.00
36010;BME280;22076;52.182;5.404;2023-09-08T06:33:00;101934.59;;;26.13;100.00
36010;BME280;22076;52.182;5.404;2023-09-08T06:35:30;101927.25;;;26.32;100.00
36010;BME280;22076;52.182;5.404;2023-09-08T06:37:57;101923.75;;;26.31;100.00
36010;BME280;22076;52.182;5.404;2023-09-08T06:40:24;101927.91;;;26.26;100.00
36010;BME280;22076;52.182;5.404;2023-09-08T06:42:57;101933.31;;;26.42;100.00
36010;BME280;22076;52.182;5.404;2023-09-08T06:45:24;101932.31;;;26.35;100.00
36010;BME280;22076;52.182;5.404;2023-09-08T06:47:53;101923.94;;;26.46;100.00
36010;BME280;22076;52.182;5.404;2023-09-08T06:50:20;101929.97;;;26.40;100.00
36010;BME280;22076;52.182;5.404;2023-09-08T06:52:48;101935.69;;;26.53;100.00
36010;BME280;22076;52.182;5.404;2023-09-08T06:55:21;101927.97;;;26.59;100.00
36010;BME280;22076;52.182;5.404;2023-09-08T06:57:49;101935.50;;;26.55;100.00
36010;BME280;22076;52.182;5.404;2023-09-08T07:00:15;101928.28;;;26.55;100.00
36010;BME280;22076;52.182;5.404;2023-09-08T07:02:44;101936.88;;;26.67;100.00
36010;BME280;22076;52.182;5.404;2023-09-08T07:05:11;101935.69;;;26.62;100.00
36010;BME280;22076;52.182;5.404;2023-09-08T07:07:37;101944.06;;;26.67;100.00
36010;BME280;22076;52.182;5.404;2023-09-08T07:10:08;101937.75;;;26.84;100.00
36010;BME280;22076;52.182;5.404;2023-09-08T07:12:41;101945.94;;;26.91;100.00
36010;BME280;22076;52.182;5.404;2023-09-08T07:15:08;101940.56;;;26.83;100.00
36010;BME280;22076;52.182;5.404;2023-09-08T07:17:37;101941.59;;;26.90;100.00
36010;BME280;22076;52.182;5.404;2023-09-08T07:20:04;101938.75;;;26.92;100.00
36010;BME280;22076;52.182;5.404;2023-09-08T07:22:31;101942.28;;;26.92;100.00
36010;BME280;22076;52.182;5.404;2023-09-08T07:24:58;101939.75;;;26.91;100.00
36010;BME280;22076;52.182;5.404;2023-09-08T07:27:26;101934.72;;;27.04;100.00
36010;BME280;22076;52.182;5.404;2023-09-08T07:29:52;101942.44;;;26.99;100.00
36010;BME280;22076;52.182;5.404;2023-09-08T07:32:19;101937.06;;;26.99;100.00
36010;BME280;22076;52.182;5.404;2023-09-08T07:34:46;101939.22;;;27.03;100.00
36010;BME280;22076;52.182;5.404;2023-09-08T07:37:24;101950.63;;;27.22;100.00
36010;BME280;22076;52.182;5.404;2023-09-08T07:39:53;101947.94;;;27.22;100.00
36010;BME280;22076;52.182;5.404;2023-09-08T07:42:20;101945.41;;;27.20;100.00
36010;BME280;22076;52.182;5.404;2023-09-08T07:44:50;101942.72;;;27.37;100.00
36010;BME280;22076;52.182;5.404;2023-09-08T07:47:19;101944.75;;;27.43;100.00
36010;BME280;22076;52.182;5.404;2023-09-08T07:49:47;101944.06;;;27.41;100.00
36010;BME280;22076;52.182;5.404;2023-09-08T07:52:14;101939.38;;;27.43;100.00
36010;BME280;22076;52.182;5.404;2023-09-08T07:54:41;101938.03;;;27.47;100.00
36010;BME280;22076;52.182;5.404;2023-09-08T07:57:07;101944.22;;;27.56;100.00
36010;BME280;22076;52.182;5.404;2023-09-08T07:59:36;101939.94;;;27.70;100.00
36010;BME280;22076;52.182;5.404;2023-09-08T08:02:06;101941.44;;;27.73;100.00
36010;BME280;22076;52.182;5.404;2023-09-08T08:04:33;101935.13;;;27.65;100.00
36010;BME280;22076;52.182;5.404;2023-09-08T08:07:01;101928.19;;;27.79;100.00
36010;BME280;22076;52.182;5.404;2023-09-08T08:09:28;101931.75;;;27.72;100.00
36010;BME280;22076;52.182;5.404;2023-09-08T08:11:54;101924.53;;;27.72;100.00
36010;BME280;22076;52.182;5.404;2023-09-08T08:14:21;101929.38;;;27.77;100.00
36010;BME280;22076;52.182;5.404;2023-09-08T08:16:47;101930.69;;;27.81;100.00
36010;BME280;22076;52.182;5.404;2023-09-08T08:19:15;101930.13;;;27.94;100.00
36010;BME280;22076;52.182;5.404;2023-09-08T08:21:42;101939.84;;;27.95;100.00
36010;BME280;22076;52.182;5.404;2023-09-08T08:24:09;101936.31;;;28.02;100.00
36010;BME280;22076;52.182;5.404;2023-09-08T08:26:36;101926.75;;;28.08;100.00
36010;BME280;22076;52.182;5.404;2023-09-08T08:29:02;101929.06;;;28.11;100.00
36010;BME280;22076;52.182;5.404;2023-09-08T08:31:29;101918.63;;;28.16;100.00
36010;BME280;22076;52.182;5.404;2023-09-08T08:33:56;101916.91;;;28.24;100.00
36010;BME280;22076;52.182;5.404;2023-09-08T08:36:24;101912.59;;;28.38;100.00
36010;BME280;22076;52.182;5.404;2023-09-08T08:38:50;101910.09;;;28.36;100.00
36010;BME280;22076;52.182;5.404;2023-09-08T08:41:17;101907.72;;;28.41;100.00
36010;BME280;22076;52.182;5.404;2023-09-08T08:43:44;101916.56;;;28.50;100.00
36010;BME280;22076;52.182;5.404;2023-09-08T08:46:13;101915.19;;;28.54;100.00
36010;BME280;22076;52.182;5.404;2023-09-08T08:48:40;101907.41;;;28.59;100.00
36010;BME280;22076;52.182;5.404;2023-09-08T08:51:08;101909.34;;;28.74;100.00
36010;BME280;22076;52.182;5.404;2023-09-08T08:53:37;101915.00;;;28.79;100.00
36010;BME280;22076;52.182;5.404;2023-09-08T08:56:09;101911.59;;;28.85;100.00
36010;BME280;22076;52.182;5.404;2023-09-08T08:58:37;101910.31;;;28.96;100.00
36010;BME280;22076;52.182;5.404;2023-09-08T09:01:06;101921.66;;;29.06;100.00
36010;BME280;22076;52.182;5.404;2023-09-08T09:03:35;101915.72;;;29.11;100.00
36010;BME280;22076;52.182;5.404;2023-09-08T09:06:04;101906.38;;;29.22;100.00
36010;BME280;22076;52.182;5.404;2023-09-08T09:08:31;101915.25;;;29.22;100.00
36010;BME280;22076;52.182;5.404;2023-09-08T09:11:00;101918.19;;;29.36;100.00
36010;BME280;22076;52.182;5.404;2023-09-08T09:13:26;101911.59;;;29.38;100.00
36010;BME280;22076;52.182;5.404;2023-09-08T09:15:58;101905.19;;;29.54;100.00
36010;BME280;22076;52.182;5.404;2023-09-08T09:18:26;101917.06;;;29.60;100.00
36010;BME280;22076;52.182;5.404;2023-09-08T09:20:59;101919.28;;;29.71;100.00
36010;BME280;22076;52.182;5.404;2023-09-08T09:23:29;101915.00;;;29.77;100.00
36010;BME280;22076;52.182;5.404;2023-09-08T09:25:57;101915.75;;;29.71;100.00
36010;BME280;22076;52.182;5.404;2023-09-08T09:28:26;101908.78;;;29.91;100.00
36010;BME280;22076;52.182;5.404;2023-09-08T09:30:55;101907.56;;;29.94;100.00
36010;BME280;22076;52.182;5.404;2023-09-08T09:33:22;101910.91;;;29.96;100.00
36010;BME280;22076;52.182;5.404;2023-09-08T09:35:50;101909.81;;;30.12;100.00
36010;BME280;22076;52.182;5.404;2023-09-08T09:38:18;101912.16;;;30.15;100.00
36010;BME280;22076;52.182;5.404;2023-09-08T09:40:45;101915.47;;;30.17;100.00
36010;BME280;22076;52.182;5.404;2023-09-08T09:43:13;101916.84;;;30.28;100.00
36010;BME280;22076;52.182;5.404;2023-09-08T09:45:41;101906.41;;;30.40;100.00
36010;BME280;22076;52.182;5.404;2023-09-08T09:48:09;101903.59;;;30.48;100.00
36010;BME280;22076;52.182;5.404;2023-09-08T09:50:39;101912.75;;;30.54;100.00
36010;BME280;22076;52.182;5.404;2023-09-08T09:53:08;101912.84;;;30.60;100.00
36010;BME280;22076;52.182;5.404;2023-09-08T09:55:37;101910.78;;;30.62;100.00
36010;BME280;22076;52.182;5.404;2023-09-08T09:58:05;101907.09;;;30.70;100.00
36010;BME280;22076;52.182;5.404;2023-09-08T10:00:34;101913.44;;;30.84;100.00
36010;BME280;22076;52.182;5.404;2023-09-08T10:03:04;101915.28;;;30.84;100.00
36010;BME280;22076;52.182;5.404;2023-09-08T10:05:31;101912.69;;;30.69;100.00
36010;BME280;22076;52.182;5.404;2023-09-08T10:07:58;101917.94;;;30.77;100.00
36010;BME280;22076;52.182;5.404;2023-09-08T10:10:26;101915.13;;;30.85;100.00
36010;BME280;22076;52.182;5.404;2023-09-08T10:12:55;101908.09;;;30.91;100.00
36010;BME280;22076;52.182;5.404;2023-09-08T10:15:24;101899.94;;;31.06;100.00
36010;BME280;22076;52.182;5.404;2023-09-08T10:17:53;101899.97;;;31.12;100.00
36010;BME280;22076;52.182;5.404;2023-09-08T10:20:23;101896.41;;;31.47;100.00
36010;BME280;22076;52.182;5.404;2023-09-08T10:22:54;101892.91;;;31.46;100.00
36010;BME280;22076;52.182;5.404;2023-09-08T10:25:24;101901.84;;;31.54;100.00
36010;BME280;22076;52.182;5.404;2023-09-08T10:27:55;101899.03;;;31.62;100.00
36010;BME280;22076;52.182;5.404;2023-09-08T10:30:22;101894.25;;;31.71;100.00
36010;BME280;22076;52.182;5.404;2023-09-08T10:32:50;101898.66;;;31.78;100.00
36010;BME280;22076;52.182;5.404;2023-09-08T10:35:18;101895.78;;;31.80;100.00
36010;BME280;22076;52.182;5.404;2023-09-08T10:37:45;101891.84;;;31.96;100.00
36010;BME280;22076;52.182;5.404;2023-09-08T10:40:22;101888.97;;;32.11;100.00
36010;BME280;22076;52.182;5.404;2023-09-08T10:43:06;101889.66;;;32.20;100.00
36010;BME280;22076;52.182;5.404;2023-09-08T10:45:32;101888.00;;;32.32;100.00
36010;BME280;22076;52.182;5.404;2023-09-08T10:47:59;101881.16;;;32.23;100.00
36010;BME280;22076;52.182;5.404;2023-09-08T10:50:29;101886.72;;;32.28;100.00
36010;BME280;22076;52.182;5.404;2023-09-08T10:53:06;101883.22;;;32.41;100.00
36010;BME280;22076;52.182;5.404;2023-09-08T10:55:39;101885.53;;;32.51;100.00
36010;BME280;22076;52.182;5.404;2023-09-08T10:58:06;101880.31;;;32.76;100.00
36010;BME280;22076;52.182;5.404;2023-09-08T11:00:47;101885.75;;;32.83;100.00
36010;BME280;22076;52.182;5.404;2023-09-08T11:03:13;101887.16;;;32.72;100.00
36010;BME280;22076;52.182;5.404;2023-09-08T11:05:44;101895.09;;;32.73;100.00
36010;BME280;22076;52.182;5.404;2023-09-08T11:08:12;101887.00;;;32.87;100.00
36010;BME280;22076;52.182;5.404;2023-09-08T11:10:39;101892.19;;;32.82;100.00
36010;BME280;22076;52.182;5.404;2023-09-08T11:13:06;101892.19;;;32.88;100.00
36010;BME280;22076;52.182;5.404;2023-09-08T11:15:33;101889.44;;;33.02;100.00
36010;BME280;22076;52.182;5.404;2023-09-08T11:18:05;101892.53;;;33.19;100.00
36010;BME280;22076;52.182;5.404;2023-09-08T11:20:32;101875.63;;;33.37;100.00
36010;BME280;22076;52.182;5.404;2023-09-08T11:22:59;101882.53;;;33.33;100.00
36010;BME280;22076;52.182;5.404;2023-09-08T11:25:28;101888.09;;;33.51;100.00
36010;BME280;22076;52.182;5.404;2023-09-08T11:27:54;101888.09;;;33.51;100.00
36010;BME280;22076;52.182;5.404;2023-09-08T11:30:21;101887.22;;;33.57;100.00
36010;BME280;22076;52.182;5.404;2023-09-08T11:32:48;101895.09;;;33.66;100.00
36010;BME280;22076;52.182;5.404;2023-09-08T11:35:14;101897.44;;;33.62;100.00
36010;BME280;22076;52.182;5.404;2023-09-08T11:37:41;101898.06;;;34.03;100.00
36010;BME280;22076;52.182;5.404;2023-09-08T11:40:09;101906.31;;;33.83;100.00
36010;BME280;22076;52.182;5.404;2023-09-08T11:42:39;101899.78;;;33.97;100.00
36010;BME280;22076;52.182;5.404;2023-09-08T11:45:11;101896.63;;;34.00;100.00
36010;BME280;22076;52.182;5.404;2023-09-08T11:47:40;101886.41;;;34.02;100.00
36010;BME280;22076;52.182;5.404;2023-09-08T11:50:08;101890.53;;;34.05;100.00
36010;BME280;22076;52.182;5.404;2023-09-08T11:52:37;101891.78;;;34.09;100.00
36010;BME280;22076;52.182;5.404;2023-09-08T11:55:04;101895.75;;;34.38;100.00
36010;BME280;22076;52.182;5.404;2023-09-08T11:57:31;101898.94;;;34.35;100.00
36010;BME280;22076;52.182;5.404;2023-09-08T12:00:00;101893.63;;;34.47;100.00
36010;BME280;22076;52.182;5.404;2023-09-08T12:02:34;101888.28;;;34.59;100.00
36010;BME280;22076;52.182;5.404;2023-09-08T12:05:00;101887.03;;;34.62;100.00
36010;BME280;22076;52.182;5.404;2023-09-08T12:07:28;101884.56;;;34.79;100.00
36010;BME280;22076;52.182;5.404;2023-09-08T12:09:54;101885.41;;;34.79;100.00
36010;BME280;22076;52.182;5.404;2023-09-08T12:12:21;101883.47;;;34.86;100.00
36010;BME280;22076;52.182;5.404;2023-09-08T12:14:48;101881.81;;;34.85;100.00
36010;BME280;22076;52.182;5.404;2023-09-08T12:17:15;101889.00;;;34.98;100.00
36010;BME280;22076;52.182;5.404;2023-09-08T12:19:42;101883.91;;;34.83;100.00
36010;BME280;22076;52.182;5.404;2023-09-08T12:22:09;101890.19;;;34.84;100.00
36010;BME280;22076;52.182;5.404;2023-09-08T12:24:47;101891.13;;;34.96;100.00
36010;BME280;22076;52.182;5.404;2023-09-08T12:27:14;101887.41;;;34.90;100.00
36010;BME280;22076;52.182;5.404;2023-09-08T12:29:41;101881.88;;;34.97;100.00
36010;BME280;22076;52.182;5.404;2023-09-08T12:32:08;101878.44;;;35.08;100.00
36010;BME280;22076;52.182;5.404;2023-09-08T12:34:36;101888.88;;;35.12;100.00
36010;BME280;22076;52.182;5.404;2023-09-08T12:37:03;101884.91;;;35.07;100.00
36010;BME280;22076;52.182;5.404;2023-09-08T12:39:32;101876.78;;;35.07;100.00
36010;BME280;22076;52.182;5.404;2023-09-08T12:41:59;101874.59;;;35.16;100.00
36010;BME280;22076;52.182;5.404;2023-09-08T12:44:26;101874.66;;;35.28;100.00
36010;BME280;22076;52.182;5.404;2023-09-08T12:46:52;101872.75;;;35.35;100.00